sensor_id;sensor_type;location;lat;lon;timestamp;P1;durP1;ratioP1;P2;durP2;ratioP2
63499;SDS011;49654;51.142;14.924;2022-07-12T00:02:00;2.40;;;1.50;;
63499;SDS011;49654;51.142;14.924;2022-07-12T00:04:28;3.00;;;1.55;;
63499;SDS011;49654;51.142;14.924;2022-07-12T00:06:56;2.33;;;1.50;;
63499;SDS011;49654;51.142;14.924;2022-07-12T00:09:23;3.17;;;1.30;;
63499;SDS011;49654;51.142;14.924;2022-07-12T00:11:50;5.20;;;1.80;;
63499;SDS011;49654;51.142;14.924;2022-07-12T00:14:17;3.28;;;1.75;;
63499;SDS011;49654;51.142;14.924;2022-07-12T00:16:44;2.75;;;1.40;;
63499;SDS011;49654;51.142;14.924;2022-07-12T00:19:11;2.53;;;1.38;;
63499;SDS011;49654;51.142;14.924;2022-07-12T00:21:38;4.32;;;1.50;;
63499;SDS011;49654;51.142;14.924;2022-07-12T00:24:06;3.05;;;1.50;;
63499;SDS011;49654;51.142;14.924;2022-07-12T00:26:33;2.60;;;1.30;;
63499;SDS011;49654;51.142;14.924;2022-07-12T00:29:00;3.63;;;1.70;;
63499;SDS011;49654;51.142;14.924;2022-07-12T00:31:27;2.38;;;1.30;;
63499;SDS011;49654;51.142;14.924;2022-07-12T00:33:54;3.25;;;1.38;;
63499;SDS011;49654;51.142;14.924;2022-07-12T00:36:21;2.05;;;1.30;;
63499;SDS011;49654;51.142;14.924;2022-07-12T00:38:47;3.92;;;1.63;;
63499;SDS011;49654;51.142;14.924;2022-07-12T00:41:16;2.95;;;1.38;;
63499;SDS011;49654;51.142;14.924;2022-07-12T00:43:43;3.42;;;1.67;;
63499;SDS011;49654;51.142;14.924;2022-07-12T00:46:10;3.53;;;1.50;;
63499;SDS011;49654;51.142;14.924;2022-07-12T00:48:37;2.55;;;1.50;;
63499;SDS011;49654;51.142;14.924;2022-07-12T00:51:04;2.17;;;1.50;;
63499;SDS011;49654;51.142;14.924;2022-07-12T00:53:31;2.95;;;1.80;;
63499;SDS011;49654;51.142;14.924;2022-07-12T00:55:58;2.38;;;1.55;;
63499;SDS011;49654;51.142;14.924;2022-07-12T00:58:27;3.22;;;1.17;;
63499;SDS011;49654;51.142;14.924;2022-07-12T01:00:55;2.47;;;1.25;;
63499;SDS011;49654;51.142;14.924;2022-07-12T01:03:23;3.25;;;1.85;;
63499;SDS011;49654;51.142;14.924;2022-07-12T01:05:50;4.00;;;1.25;;
63499;SDS011;49654;51.142;14.924;2022-07-12T01:08:17;1.85;;;1.10;;
63499;SDS011;49654;51.142;14.924;2022-07-12T01:10:46;1.75;;;1.30;;
63499;SDS011;49654;51.142;14.924;2022-07-12T01:13:14;3.53;;;1.30;;
63499;SDS011;49654;51.142;14.924;2022-07-12T01:15:43;2.08;;;1.50;;
63499;SDS011;49654;51.142;14.924;2022-07-12T01:18:11;2.08;;;1.30;;
63499;SDS011;49654;51.142;14.924;2022-07-12T01:20:40;2.38;;;1.30;;
63499;SDS011;49654;51.142;14.924;2022-07-12T01:23:09;2.30;;;1.20;;
63499;SDS011;49654;51.142;14.924;2022-07-12T01:25:36;2.10;;;1.30;;
63499;SDS011;49654;51.142;14.924;2022-07-12T01:28:04;3.33;;;1.40;;
63499;SDS011;49654;51.142;14.924;2022-07-12T01:30:31;1.67;;;1.33;;
63499;SDS011;49654;51.142;14.924;2022-07-12T01:32:58;2.78;;;1.45;;
63499;SDS011;49654;51.142;14.924;2022-07-12T01:35:26;4.55;;;1.55;;
63499;SDS011;49654;51.142;14.924;2022-07-12T01:37:54;2.10;;;1.38;;
63499;SDS011;49654;51.142;14.924;2022-07-12T01:40:23;1.92;;;1.50;;
63499;SDS011;49654;51.142;14.924;2022-07-12T01:42:50;3.67;;;1.60;;
63499;SDS011;49654;51.142;14.924;2022-07-12T01:45:18;3.15;;;1.55;;
63499;SDS011;49654;51.142;14.924;2022-07-12T01:47:45;3.30;;;1.40;;
63499;SDS011;49654;51.142;14.924;2022-07-12T01:50:12;2.45;;;1.27;;
63499;SDS011;49654;51.142;14.924;2022-07-12T01:52:39;2.42;;;1.20;;
63499;SDS011;49654;51.142;14.924;2022-07-12T01:55:07;2.22;;;1.10;;
63499;SDS011;49654;51.142;14.924;2022-07-12T01:57:37;3.25;;;1.27;;
63499;SDS011;49654;51.142;14.924;2022-07-12T02:00:05;2.78;;;1.40;;
63499;SDS011;49654;51.142;14.924;2022-07-12T02:02:33;3.47;;;1.40;;
63499;SDS011;49654;51.142;14.924;2022-07-12T02:05:00;5.35;;;1.80;;
63499;SDS011;49654;51.142;14.924;2022-07-12T02:07:28;3.63;;;1.30;;
63499;SDS011;49654;51.142;14.924;2022-07-12T02:09:55;4.00;;;1.80;;
63499;SDS011;49654;51.142;14.924;2022-07-12T02:12:23;2.25;;;1.52;;
63499;SDS011;49654;51.142;14.924;2022-07-12T02:14:52;2.85;;;1.40;;
63499;SDS011;49654;51.142;14.924;2022-07-12T02:17:19;2.40;;;1.45;;
63499;SDS011;49654;51.142;14.924;2022-07-12T02:19:45;2.75;;;1.58;;
63499;SDS011;49654;51.142;14.924;2022-07-12T02:22:12;2.38;;;1.55;;
63499;SDS011;49654;51.142;14.924;2022-07-12T02:24:39;2.25;;;1.60;;
63499;SDS011;49654;51.142;14.924;2022-07-12T02:27:06;2.03;;;1.40;;
63499;SDS011;49654;51.142;14.924;2022-07-12T02:29:33;1.95;;;1.63;;
63499;SDS011;49654;51.142;14.924;2022-07-12T02:32:03;2.85;;;1.70;;
63499;SDS011;49654;51.142;14.924;2022-07-12T02:34:30;2.83;;;1.70;;
63499;SDS011;49654;51.142;14.924;2022-07-12T02:36:57;3.53;;;1.83;;
63499;SDS011;49654;51.142;14.924;2022-07-12T02:39:24;3.58;;;2.00;;
63499;SDS011;49654;51.142;14.924;2022-07-12T02:41:52;3.70;;;1.73;;
63499;SDS011;49654;51.142;14.924;2022-07-12T02:44:19;2.40;;;1.48;;
63499;SDS011;49654;51.142;14.924;2022-07-12T02:46:46;3.08;;;1.23;;
63499;SDS011;49654;51.142;14.924;2022-07-12T02:49:14;2.03;;;1.38;;
63499;SDS011;49654;51.142;14.924;2022-07-12T02:51:41;2.35;;;1.35;;
63499;SDS011;49654;51.142;14.924;2022-07-12T02:54:08;2.42;;;1.60;;
63499;SDS011;49654;51.142;14.924;2022-07-12T02:56:35;3.75;;;1.70;;
63499;SDS011;49654;51.142;14.924;2022-07-12T02:59:02;2.22;;;1.60;;
63499;SDS011;49654;51.142;14.924;2022-07-12T03:01:29;2.72;;;1.58;;
63499;SDS011;49654;51.142;14.924;2022-07-12T03:03:56;2.63;;;1.67;;
63499;SDS011;49654;51.142;14.924;2022-07-12T03:06:24;3.58;;;1.30;;
63499;SDS011;49654;51.142;14.924;2022-07-12T03:08:51;1.95;;;1.52;;
63499;SDS011;49654;51.142;14.924;2022-07-12T03:11:18;4.50;;;1.70;;
63499;SDS011;49654;51.142;14.924;2022-07-12T03:13:45;3.28;;;1.70;;
63499;SDS011;49654;51.142;14.924;2022-07-12T03:16:12;2.25;;;1.52;;
63499;SDS011;49654;51.142;14.924;2022-07-12T03:18:39;2.33;;;1.63;;
63499;SDS011;49654;51.142;14.924;2022-07-12T03:21:07;2.30;;;1.48;;
63499;SDS011;49654;51.142;14.924;2022-07-12T03:23:35;2.10;;;1.42;;
63499;SDS011;49654;51.142;14.924;2022-07-12T03:26:02;4.03;;;1.55;;
63499;SDS011;49654;51.142;14.924;2022-07-12T03:28:29;2.20;;;1.65;;
63499;SDS011;49654;51.142;14.924;2022-07-12T03:30:56;3.42;;;1.55;;
63499;SDS011;49654;51.142;14.924;2022-07-12T03:33:23;9.50;;;2.17;;
63499;SDS011;49654;51.142;14.924;2022-07-12T03:35:50;4.10;;;1.35;;
63499;SDS011;49654;51.142;14.924;2022-07-12T03:38:17;4.47;;;1.65;;
63499;SDS011;49654;51.142;14.924;2022-07-12T03:40:45;4.28;;;1.60;;
63499;SDS011;49654;51.142;14.924;2022-07-12T03:43:12;4.85;;;1.77;;
63499;SDS011;49654;51.142;14.924;2022-07-12T03:45:39;3.83;;;1.63;;
63499;SDS011;49654;51.142;14.924;2022-07-12T03:50:36;4.07;;;1.60;;
63499;SDS011;49654;51.142;14.924;2022-07-12T03:53:04;3.33;;;1.55;;
63499;SDS011;49654;51.142;14.924;2022-07-12T03:55:31;2.95;;;1.60;;
63499;SDS011;49654;51.142;14.924;2022-07-12T03:57:59;3.78;;;1.40;;
63499;SDS011;49654;51.142;14.924;2022-07-12T04:00:26;3.33;;;1.45;;
63499;SDS011;49654;51.142;14.924;2022-07-12T04:02:53;5.78;;;1.77;;
63499;SDS011;49654;51.142;14.924;2022-07-12T04:05:20;3.45;;;1.48;;
63499;SDS011;49654;51.142;14.924;2022-07-12T04:07:51;3.50;;;1.80;;
63499;SDS011;49654;51.142;14.924;2022-07-12T04:10:19;3.88;;;2.13;;
63499;SDS011;49654;51.142;14.924;2022-07-12T04:12:46;2.33;;;1.40;;
63499;SDS011;49654;51.142;14.924;2022-07-12T04:15:14;1.80;;;1.58;;
63499;SDS011;49654;51.142;14.924;2022-07-12T04:17:41;4.68;;;1.30;;
63499;SDS011;49654;51.142;14.924;2022-07-12T04:20:09;6.70;;;1.50;;
63499;SDS011;49654;51.142;14.924;2022-07-12T04:22:36;5.45;;;1.35;;
63499;SDS011;49654;51.142;14.924;2022-07-12T04:25:05;2.95;;;1.63;;
63499;SDS011;49654;51.142;14.924;2022-07-12T04:27:33;3.17;;;1.20;;
63499;SDS011;49654;51.142;14.924;2022-07-12T04:30:00;3.50;;;1.35;;
63499;SDS011;49654;51.142;14.924;2022-07-12T04:32:28;3.03;;;1.73;;
63499;SDS011;49654;51.142;14.924;2022-07-12T04:34:55;5.13;;;1.45;;
63499;SDS011;49654;51.142;14.924;2022-07-12T04:37:22;3.40;;;1.38;;
63499;SDS011;49654;51.142;14.924;2022-07-12T04:39:49;3.42;;;1.35;;
63499;SDS011;49654;51.142;14.924;2022-07-12T04:42:16;4.30;;;1.30;;
63499;SDS011;49654;51.142;14.924;2022-07-12T04:44:43;3.00;;;1.33;;
63499;SDS011;49654;51.142;14.924;2022-07-12T04:47:10;1.38;;;1.17;;
63499;SDS011;49654;51.142;14.924;2022-07-12T04:49:38;4.15;;;1.33;;
63499;SDS011;49654;51.142;14.924;2022-07-12T04:52:06;3.83;;;1.40;;
63499;SDS011;49654;51.142;14.924;2022-07-12T04:54:33;2.55;;;1.48;;
63499;SDS011;49654;51.142;14.924;2022-07-12T04:57:00;4.25;;;1.83;;
63499;SDS011;49654;51.142;14.924;2022-07-12T04:59:27;4.95;;;1.60;;
63499;SDS011;49654;51.142;14.924;2022-07-12T05:01:54;3.22;;;1.60;;
63499;SDS011;49654;51.142;14.924;2022-07-12T05:04:21;3.55;;;1.60;;
63499;SDS011;49654;51.142;14.924;2022-07-12T05:06:49;2.38;;;1.33;;
63499;SDS011;49654;51.142;14.924;2022-07-12T05:09:17;3.08;;;1.45;;
63499;SDS011;49654;51.142;14.924;2022-07-12T05:11:44;3.22;;;1.90;;
63499;SDS011;49654;51.142;14.924;2022-07-12T05:14:11;3.25;;;1.60;;
63499;SDS011;49654;51.142;14.924;2022-07-12T05:16:38;7.80;;;1.80;;
63499;SDS011;49654;51.142;14.924;2022-07-12T05:19:05;3.45;;;1.30;;
63499;SDS011;49654;51.142;14.924;2022-07-12T05:21:32;2.33;;;1.80;;
63499;SDS011;49654;51.142;14.924;2022-07-12T05:24:02;3.67;;;1.20;;
63499;SDS011;49654;51.142;14.924;2022-07-12T05:26:29;2.63;;;1.58;;
63499;SDS011;49654;51.142;14.924;2022-07-12T05:28:56;6.65;;;2.05;;
63499;SDS011;49654;51.142;14.924;2022-07-12T05:31:23;2.95;;;1.48;;
63499;SDS011;49654;51.142;14.924;2022-07-12T05:33:50;4.82;;;1.55;;
63499;SDS011;49654;51.142;14.924;2022-07-12T05:36:17;4.53;;;1.60;;
63499;SDS011;49654;51.142;14.924;2022-07-12T05:38:44;5.53;;;1.92;;
63499;SDS011;49654;51.142;14.924;2022-07-12T05:41:12;3.15;;;1.50;;
63499;SDS011;49654;51.142;14.924;2022-07-12T05:43:39;3.97;;;1.55;;
63499;SDS011;49654;51.142;14.924;2022-07-12T05:46:06;2.40;;;1.20;;
63499;SDS011;49654;51.142;14.924;2022-07-12T05:48:34;3.05;;;1.20;;
63499;SDS011;49654;51.142;14.924;2022-07-12T05:51:01;2.78;;;1.33;;
63499;SDS011;49654;51.142;14.924;2022-07-12T05:53:42;2.47;;;1.40;;
63499;SDS011;49654;51.142;14.924;2022-07-12T05:56:09;2.65;;;1.30;;
63499;SDS011;49654;51.142;14.924;2022-07-12T05:58:38;3.92;;;1.60;;
63499;SDS011;49654;51.142;14.924;2022-07-12T06:01:05;4.45;;;1.88;;
63499;SDS011;49654;51.142;14.924;2022-07-12T06:03:32;5.72;;;1.50;;
63499;SDS011;49654;51.142;14.924;2022-07-12T06:05:59;3.92;;;1.50;;
63499;SDS011;49654;51.142;14.924;2022-07-12T06:08:26;2.90;;;1.60;;
63499;SDS011;49654;51.142;14.924;2022-07-12T06:10:53;4.20;;;1.50;;
63499;SDS011;49654;51.142;14.924;2022-07-12T06:13:20;3.08;;;1.35;;
63499;SDS011;49654;51.142;14.924;2022-07-12T06:15:48;2.38;;;1.30;;
63499;SDS011;49654;51.142;14.924;2022-07-12T06:18:15;2.20;;;1.45;;
63499;SDS011;49654;51.142;14.924;2022-07-12T06:20:42;4.10;;;1.48;;
63499;SDS011;49654;51.142;14.924;2022-07-12T06:23:09;2.95;;;1.33;;
63499;SDS011;49654;51.142;14.924;2022-07-12T06:25:36;3.08;;;1.42;;
63499;SDS011;49654;51.142;14.924;2022-07-12T06:28:04;3.70;;;1.45;;
63499;SDS011;49654;51.142;14.924;2022-07-12T06:30:31;7.53;;;4.63;;
63499;SDS011;49654;51.142;14.924;2022-07-12T06:32:59;4.22;;;1.60;;
63499;SDS011;49654;51.142;14.924;2022-07-12T06:35:26;2.05;;;1.50;;
63499;SDS011;49654;51.142;14.924;2022-07-12T06:37:54;2.97;;;1.60;;
63499;SDS011;49654;51.142;14.924;2022-07-12T06:40:21;3.47;;;1.60;;
63499;SDS011;49654;51.142;14.924;2022-07-12T06:42:48;2.45;;;1.35;;
63499;SDS011;49654;51.142;14.924;2022-07-12T06:45:16;4.50;;;1.40;;
63499;SDS011;49654;51.142;14.924;2022-07-12T06:47:43;3.35;;;1.23;;
63499;SDS011;49654;51.142;14.924;2022-07-12T06:50:12;4.25;;;3.17;;
63499;SDS011;49654;51.142;14.924;2022-07-12T06:52:39;3.08;;;1.20;;
63499;SDS011;49654;51.142;14.924;2022-07-12T06:55:07;3.28;;;1.33;;
63499;SDS011;49654;51.142;14.924;2022-07-12T06:57:34;4.18;;;1.20;;
63499;SDS011;49654;51.142;14.924;2022-07-12T07:00:03;3.35;;;1.20;;
63499;SDS011;49654;51.142;14.924;2022-07-12T07:02:31;1.85;;;1.13;;
63499;SDS011;49654;51.142;14.924;2022-07-12T07:04:58;1.88;;;1.20;;
63499;SDS011;49654;51.142;14.924;2022-07-12T07:07:26;3.22;;;1.70;;
63499;SDS011;49654;51.142;14.924;2022-07-12T07:09:53;2.47;;;1.30;;
63499;SDS011;49654;51.142;14.924;2022-07-12T07:12:20;2.50;;;1.15;;
63499;SDS011;49654;51.142;14.924;2022-07-12T07:14:47;1.77;;;1.10;;
63499;SDS011;49654;51.142;14.924;2022-07-12T07:17:15;2.20;;;1.27;;
63499;SDS011;49654;51.142;14.924;2022-07-12T07:19:43;4.05;;;1.10;;
63499;SDS011;49654;51.142;14.924;2022-07-12T07:22:10;1.25;;;0.82;;
63499;SDS011;49654;51.142;14.924;2022-07-12T07:24:38;2.13;;;1.20;;
63499;SDS011;49654;51.142;14.924;2022-07-12T07:27:06;2.70;;;1.00;;
63499;SDS011;49654;51.142;14.924;2022-07-12T07:29:33;3.00;;;1.10;;
63499;SDS011;49654;51.142;14.924;2022-07-12T07:32:17;3.58;;;1.65;;
63499;SDS011;49654;51.142;14.924;2022-07-12T07:34:44;4.07;;;1.30;;
63499;SDS011;49654;51.142;14.924;2022-07-12T07:37:11;4.40;;;1.20;;
63499;SDS011;49654;51.142;14.924;2022-07-12T07:39:41;3.83;;;1.60;;
63499;SDS011;49654;51.142;14.924;2022-07-12T07:42:08;3.28;;;1.20;;
63499;SDS011;49654;51.142;14.924;2022-07-12T07:44:35;4.22;;;1.10;;
63499;SDS011;49654;51.142;14.924;2022-07-12T07:47:02;2.03;;;0.80;;
63499;SDS011;49654;51.142;14.924;2022-07-12T07:49:30;3.08;;;1.10;;
63499;SDS011;49654;51.142;14.924;2022-07-12T07:51:57;1.95;;;0.93;;
63499;SDS011;49654;51.142;14.924;2022-07-12T07:54:24;3.35;;;1.00;;
63499;SDS011;49654;51.142;14.924;2022-07-12T07:56:52;2.00;;;1.05;;
63499;SDS011;49654;51.142;14.924;2022-07-12T07:59:19;3.80;;;1.15;;
63499;SDS011;49654;51.142;14.924;2022-07-12T08:01:46;1.73;;;1.05;;
63499;SDS011;49654;51.142;14.924;2022-07-12T08:04:18;2.17;;;1.00;;
63499;SDS011;49654;51.142;14.924;2022-07-12T08:06:46;2.15;;;1.20;;
63499;SDS011;49654;51.142;14.924;2022-07-12T08:09:14;2.75;;;1.30;;
63499;SDS011;49654;51.142;14.924;2022-07-12T08:11:41;2.42;;;1.17;;
63499;SDS011;49654;51.142;14.924;2022-07-12T08:14:10;2.75;;;1.10;;
63499;SDS011;49654;51.142;14.924;2022-07-12T08:16:37;5.35;;;1.33;;
63499;SDS011;49654;51.142;14.924;2022-07-12T08:19:04;2.45;;;1.20;;
63499;SDS011;49654;51.142;14.924;2022-07-12T08:21:32;4.10;;;1.00;;
63499;SDS011;49654;51.142;14.924;2022-07-12T08:23:59;2.78;;;1.30;;
63499;SDS011;49654;51.142;14.924;2022-07-12T08:26:26;2.90;;;1.15;;
63499;SDS011;49654;51.142;14.924;2022-07-12T08:28:53;3.20;;;1.10;;
63499;SDS011;49654;51.142;14.924;2022-07-12T08:31:21;2.38;;;0.90;;
63499;SDS011;49654;51.142;14.924;2022-07-12T08:33:48;2.28;;;1.00;;
63499;SDS011;49654;51.142;14.924;2022-07-12T08:36:15;3.40;;;1.10;;
63499;SDS011;49654;51.142;14.924;2022-07-12T08:38:42;5.40;;;1.02;;
63499;SDS011;49654;51.142;14.924;2022-07-12T08:41:11;2.83;;;1.05;;
63499;SDS011;49654;51.142;14.924;2022-07-12T08:43:38;3.08;;;1.10;;
63499;SDS011;49654;51.142;14.924;2022-07-12T08:46:06;2.50;;;1.10;;
63499;SDS011;49654;51.142;14.924;2022-07-12T08:48:35;3.67;;;1.02;;
63499;SDS011;49654;51.142;14.924;2022-07-12T08:51:04;2.33;;;1.10;;
63499;SDS011;49654;51.142;14.924;2022-07-12T08:53:32;1.77;;;1.00;;
63499;SDS011;49654;51.142;14.924;2022-07-12T08:56:00;3.60;;;1.30;;
63499;SDS011;49654;51.142;14.924;2022-07-12T08:58:28;3.97;;;0.90;;
63499;SDS011;49654;51.142;14.924;2022-07-12T09:00:55;1.40;;;0.80;;
63499;SDS011;49654;51.142;14.924;2022-07-12T09:03:24;2.17;;;0.85;;
63499;SDS011;49654;51.142;14.924;2022-07-12T09:05:57;1.75;;;1.00;;
63499;SDS011;49654;51.142;14.924;2022-07-12T09:08:26;1.52;;;0.90;;
63499;SDS011;49654;51.142;14.924;2022-07-12T09:10:55;4.38;;;1.00;;
63499;SDS011;49654;51.142;14.924;2022-07-12T09:16:16;3.10;;;0.93;;
63499;SDS011;49654;51.142;14.924;2022-07-12T09:18:44;4.22;;;1.30;;
63499;SDS011;49654;51.142;14.924;2022-07-12T09:21:21;3.10;;;1.35;;
63499;SDS011;49654;51.142;14.924;2022-07-12T09:23:53;3.85;;;0.95;;
63499;SDS011;49654;51.142;14.924;2022-07-12T09:26:21;3.28;;;1.10;;
63499;SDS011;49654;51.142;14.924;2022-07-12T09:28:49;1.92;;;1.00;;
63499;SDS011;49654;51.142;14.924;2022-07-12T09:31:18;2.90;;;1.00;;
63499;SDS011;49654;51.142;14.924;2022-07-12T09:34:01;2.35;;;0.90;;
63499;SDS011;49654;51.142;14.924;2022-07-12T09:36:57;3.33;;;0.90;;
63499;SDS011;49654;51.142;14.924;2022-07-12T09:39:25;3.35;;;0.98;;
63499;SDS011;49654;51.142;14.924;2022-07-12T09:41:53;4.68;;;1.23;;
63499;SDS011;49654;51.142;14.924;2022-07-12T09:44:21;3.97;;;1.38;;
63499;SDS011;49654;51.142;14.924;2022-07-12T09:46:50;3.25;;;1.20;;
63499;SDS011;49654;51.142;14.924;2022-07-12T09:49:18;2.88;;;1.20;;
63499;SDS011;49654;51.142;14.924;2022-07-12T09:51:45;2.53;;;1.05;;
63499;SDS011;49654;51.142;14.924;2022-07-12T09:54:17;3.35;;;1.27;;
63499;SDS011;49654;51.142;14.924;2022-07-12T09:56:52;6.90;;;1.58;;
63499;SDS011;49654;51.142;14.924;2022-07-12T09:59:20;4.72;;;1.30;;
63499;SDS011;49654;51.142;14.924;2022-07-12T10:01:50;3.53;;;1.40;;
63499;SDS011;49654;51.142;14.924;2022-07-12T10:04:20;2.17;;;1.02;;
63499;SDS011;49654;51.142;14.924;2022-07-12T10:06:47;2.53;;;1.10;;
63499;SDS011;49654;51.142;14.924;2022-07-12T10:09:16;3.47;;;1.17;;
63499;SDS011;49654;51.142;14.924;2022-07-12T10:11:43;2.58;;;0.90;;
63499;SDS011;49654;51.142;14.924;2022-07-12T10:14:11;4.40;;;1.10;;
63499;SDS011;49654;51.142;14.924;2022-07-12T10:16:41;2.97;;;1.20;;
63499;SDS011;49654;51.142;14.924;2022-07-12T10:19:24;1.90;;;1.05;;
63499;SDS011;49654;51.142;14.924;2022-07-12T10:21:53;1.48;;;1.27;;
63499;SDS011;49654;51.142;14.924;2022-07-12T10:27:26;3.33;;;0.90;;
63499;SDS011;49654;51.142;14.924;2022-07-12T10:30:11;2.78;;;1.10;;
63499;SDS011;49654;51.142;14.924;2022-07-12T10:32:43;2.28;;;0.98;;
63499;SDS011;49654;51.142;14.924;2022-07-12T10:35:12;1.85;;;1.00;;
63499;SDS011;49654;51.142;14.924;2022-07-12T10:37:40;1.45;;;0.90;;
63499;SDS011;49654;51.142;14.924;2022-07-12T10:40:15;1.75;;;1.20;;
63499;SDS011;49654;51.142;14.924;2022-07-12T10:45:45;1.95;;;1.00;;
63499;SDS011;49654;51.142;14.924;2022-07-12T10:48:20;2.63;;;0.90;;
63499;SDS011;49654;51.142;14.924;2022-07-12T10:50:50;2.50;;;1.20;;
63499;SDS011;49654;51.142;14.924;2022-07-12T10:53:22;5.65;;;1.20;;
63499;SDS011;49654;51.142;14.924;2022-07-12T10:56:08;1.42;;;0.90;;
63499;SDS011;49654;51.142;14.924;2022-07-12T10:58:36;1.58;;;0.80;;
63499;SDS011;49654;51.142;14.924;2022-07-12T11:01:05;4.00;;;0.73;;
63499;SDS011;49654;51.142;14.924;2022-07-12T11:03:37;2.42;;;1.08;;
63499;SDS011;49654;51.142;14.924;2022-07-12T11:06:05;1.00;;;0.57;;
63499;SDS011;49654;51.142;14.924;2022-07-12T11:08:45;0.95;;;0.80;;
63499;SDS011;49654;51.142;14.924;2022-07-12T11:11:14;3.63;;;0.85;;
63499;SDS011;49654;51.142;14.924;2022-07-12T11:13:41;1.27;;;0.70;;
63499;SDS011;49654;51.142;14.924;2022-07-12T11:16:08;1.88;;;0.90;;
63499;SDS011;49654;51.142;14.924;2022-07-12T11:18:35;2.70;;;0.90;;
63499;SDS011;49654;51.142;14.924;2022-07-12T11:21:03;2.20;;;0.75;;
63499;SDS011;49654;51.142;14.924;2022-07-12T11:23:31;6.50;;;0.90;;
63499;SDS011;49654;51.142;14.924;2022-07-12T11:25:59;3.50;;;1.15;;
63499;SDS011;49654;51.142;14.924;2022-07-12T11:28:29;4.28;;;0.80;;
63499;SDS011;49654;51.142;14.924;2022-07-12T11:31:04;2.75;;;0.80;;
63499;SDS011;49654;51.142;14.924;2022-07-12T11:33:32;2.08;;;0.80;;
63499;SDS011;49654;51.142;14.924;2022-07-12T11:36:00;2.63;;;0.80;;
63499;SDS011;49654;51.142;14.924;2022-07-12T11:38:30;2.55;;;0.90;;
63499;SDS011;49654;51.142;14.924;2022-07-12T11:40:57;3.40;;;0.80;;
63499;SDS011;49654;51.142;14.924;2022-07-12T11:43:25;1.92;;;1.00;;
63499;SDS011;49654;51.142;14.924;2022-07-12T11:45:53;1.45;;;0.90;;
63499;SDS011;49654;51.142;14.924;2022-07-12T11:48:21;5.30;;;1.00;;
63499;SDS011;49654;51.142;14.924;2022-07-12T11:50:50;1.38;;;0.65;;
63499;SDS011;49654;51.142;14.924;2022-07-12T11:53:18;5.18;;;0.90;;
63499;SDS011;49654;51.142;14.924;2022-07-12T11:55:47;0.98;;;0.75;;
63499;SDS011;49654;51.142;14.924;2022-07-12T11:58:15;1.63;;;0.70;;
63499;SDS011;49654;51.142;14.924;2022-07-12T12:00:44;1.35;;;0.95;;
63499;SDS011;49654;51.142;14.924;2022-07-12T12:03:13;2.13;;;0.80;;
63499;SDS011;49654;51.142;14.924;2022-07-12T12:05:42;5.00;;;1.02;;
63499;SDS011;49654;51.142;14.924;2022-07-12T12:08:09;3.00;;;1.10;;
63499;SDS011;49654;51.142;14.924;2022-07-12T12:10:38;1.42;;;0.75;;
63499;SDS011;49654;51.142;14.924;2022-07-12T12:13:12;1.40;;;0.68;;
63499;SDS011;49654;51.142;14.924;2022-07-12T12:15:41;1.30;;;0.70;;
63499;SDS011;49654;51.142;14.924;2022-07-12T12:18:27;1.30;;;0.73;;
63499;SDS011;49654;51.142;14.924;2022-07-12T12:20:58;1.02;;;0.65;;
63499;SDS011;49654;51.142;14.924;2022-07-12T12:23:27;1.33;;;0.80;;
63499;SDS011;49654;51.142;14.924;2022-07-12T12:26:08;1.85;;;0.80;;
63499;SDS011;49654;51.142;14.924;2022-07-12T12:28:42;0.88;;;0.57;;
63499;SDS011;49654;51.142;14.924;2022-07-12T12:31:10;1.05;;;0.77;;
63499;SDS011;49654;51.142;14.924;2022-07-12T12:33:39;0.85;;;0.60;;
63499;SDS011;49654;51.142;14.924;2022-07-12T12:38:54;0.65;;;0.50;;
63499;SDS011;49654;51.142;14.924;2022-07-12T12:41:22;1.58;;;0.70;;
63499;SDS011;49654;51.142;14.924;2022-07-12T12:43:56;2.72;;;0.73;;
63499;SDS011;49654;51.142;14.924;2022-07-12T12:49:11;1.88;;;0.70;;
63499;SDS011;49654;51.142;14.924;2022-07-12T12:51:50;0.60;;;0.50;;
63499;SDS011;49654;51.142;14.924;2022-07-12T12:54:30;1.10;;;0.55;;
63499;SDS011;49654;51.142;14.924;2022-07-12T12:56:57;3.30;;;0.98;;
63499;SDS011;49654;51.142;14.924;2022-07-12T12:59:24;1.70;;;0.70;;
63499;SDS011;49654;51.142;14.924;2022-07-12T13:01:52;2.28;;;0.70;;
63499;SDS011;49654;51.142;14.924;2022-07-12T13:04:20;3.17;;;0.80;;
63499;SDS011;49654;51.142;14.924;2022-07-12T13:06:47;1.48;;;0.80;;
63499;SDS011;49654;51.142;14.924;2022-07-12T13:09:14;1.08;;;0.60;;
63499;SDS011;49654;51.142;14.924;2022-07-12T13:11:41;2.55;;;0.80;;
63499;SDS011;49654;51.142;14.924;2022-07-12T13:14:08;1.90;;;0.63;;
63499;SDS011;49654;51.142;14.924;2022-07-12T13:16:35;1.38;;;0.60;;
63499;SDS011;49654;51.142;14.924;2022-07-12T13:19:01;4.03;;;0.80;;
63499;SDS011;49654;51.142;14.924;2022-07-12T13:21:30;0.40;;;0.40;;
63499;SDS011;49654;51.142;14.924;2022-07-12T13:23:57;0.60;;;0.50;;
63499;SDS011;49654;51.142;14.924;2022-07-12T13:26:24;0.75;;;0.60;;
63499;SDS011;49654;51.142;14.924;2022-07-12T13:28:52;3.03;;;0.70;;
63499;SDS011;49654;51.142;14.924;2022-07-12T13:31:19;1.65;;;0.73;;
63499;SDS011;49654;51.142;14.924;2022-07-12T13:33:46;0.60;;;0.60;;
63499;SDS011;49654;51.142;14.924;2022-07-12T13:36:13;1.52;;;0.77;;
63499;SDS011;49654;51.142;14.924;2022-07-12T13:38:42;1.40;;;0.80;;
63499;SDS011;49654;51.142;14.924;2022-07-12T13:41:09;0.90;;;0.70;;
63499;SDS011;49654;51.142;14.924;2022-07-12T13:43:36;2.58;;;0.65;;
63499;SDS011;49654;51.142;14.924;2022-07-12T13:46:03;2.20;;;0.68;;
63499;SDS011;49654;51.142;14.924;2022-07-12T13:48:30;6.55;;;1.40;;
63499;SDS011;49654;51.142;14.924;2022-07-12T13:50:59;2.13;;;0.80;;
63499;SDS011;49654;51.142;14.924;2022-07-12T13:53:25;1.17;;;0.80;;
63499;SDS011;49654;51.142;14.924;2022-07-12T13:55:54;2.25;;;0.70;;
63499;SDS011;49654;51.142;14.924;2022-07-12T13:58:21;3.25;;;1.00;;
63499;SDS011;49654;51.142;14.924;2022-07-12T14:00:48;2.08;;;0.73;;
63499;SDS011;49654;51.142;14.924;2022-07-12T14:03:14;2.72;;;0.95;;
63499;SDS011;49654;51.142;14.924;2022-07-12T14:05:41;1.20;;;0.70;;
63499;SDS011;49654;51.142;14.924;2022-07-12T14:08:08;4.95;;;0.80;;
63499;SDS011;49654;51.142;14.924;2022-07-12T14:10:35;1.20;;;0.80;;
63499;SDS011;49654;51.142;14.924;2022-07-12T14:13:04;7.70;;;1.58;;
63499;SDS011;49654;51.142;14.924;2022-07-12T14:15:31;4.85;;;0.95;;
63499;SDS011;49654;51.142;14.924;2022-07-12T14:18:05;1.50;;;0.70;;
63499;SDS011;49654;51.142;14.924;2022-07-12T14:20:33;4.95;;;0.70;;
63499;SDS011;49654;51.142;14.924;2022-07-12T14:23:02;0.70;;;0.60;;
63499;SDS011;49654;51.142;14.924;2022-07-12T14:25:29;3.75;;;1.02;;
63499;SDS011;49654;51.142;14.924;2022-07-12T14:27:56;1.00;;;0.80;;
63499;SDS011;49654;51.142;14.924;2022-07-12T14:30:24;2.15;;;0.82;;
63499;SDS011;49654;51.142;14.924;2022-07-12T14:32:51;2.53;;;0.80;;
63499;SDS011;49654;51.142;14.924;2022-07-12T14:35:18;1.20;;;0.60;;
63499;SDS011;49654;51.142;14.924;2022-07-12T14:37:45;2.03;;;0.80;;
63499;SDS011;49654;51.142;14.924;2022-07-12T14:40:12;2.95;;;0.80;;
63499;SDS011;49654;51.142;14.924;2022-07-12T14:42:39;1.40;;;0.80;;
63499;SDS011;49654;51.142;14.924;2022-07-12T14:45:07;1.13;;;0.70;;
63499;SDS011;49654;51.142;14.924;2022-07-12T14:47:35;6.05;;;0.85;;
63499;SDS011;49654;51.142;14.924;2022-07-12T14:50:02;2.97;;;0.80;;
63499;SDS011;49654;51.142;14.924;2022-07-12T14:52:31;2.72;;;0.80;;
63499;SDS011;49654;51.142;14.924;2022-07-12T14:54:58;2.40;;;0.68;;
63499;SDS011;49654;51.142;14.924;2022-07-12T14:57:25;1.45;;;0.90;;